Mount Tabor, Vermont
Current Conditions -  °F | °C
As of 12:55 PM on Monday 24 Nov 2014 (Local Time) from KRUT Reporting Station
Overcast Overcast  
Wind Chill: 66°   Ceiling: 4800
Heat Index: 66°   Visibility: 10mi
Dew Point: 55°   Wind: 14mph
Humidity: 68%   Direction: 190°S
Pressure: 29.48"   Gusts: 20mph
Location:  43.3492°N, 72.9643°W
Report Text: KRUT 241755Z 19012G17KT 10SM SCT040 BKN048 OVC070 19/13 A2948 RMK AO1 10190 20070 57034
Loading
Personal Weather Stations






























Interactive Weather Map New forecast layout! Learn more

10-Day Weather Forecast

Advertisements
Track Severe Weather on mobile